Impacts METAR Board INFO
IDs:

KEWR - Newark Intl, NJ, US

Updated at: 1251 UTC 16 Dec 2017
Potential Impact None Slight Moderate High
Time16/00Z 16/01Z 16/02Z 16/03Z 16/04Z 16/05Z 16/06Z 16/07Z 16/08Z 16/09Z 16/10Z 16/11Z 16/12Z
VIS3 9 10 10 10 10 10 10 10 10 10 10 10
CIG40 65 250 -- 80 -- -- -- -- -- -- -- --
CoverOVCOVCBKNSCTBKNFEWFEWFEWFEWFEWFEWFEWSCT
FltCatMVFRVFRVFRVFRVFRVFRVFRVFRVFRVFRVFRVFRVFR
WX-SN-SN----------------------
WDir270250260240220220250260260240220220240
WSpd5 5 9 7 7 7 7 12 10 7 5 5 10
WGst-- -- -- -- -- -- -- -- -- -- -- -- --
Raw hourly METARs
KEWR 152351Z 27005KT 3SM -SN FEW009 SCT029 OVC040 M04/M07 A2993 RMK AO2 SFC VIS 5 SLP133 SCT V BKN 931010 4/001 P0000 60010 T10441067 11028 21050 58002
KEWR 160103Z 25005KT 9SM -SN FEW008 SCT030 OVC065 M04/M07 A2992 RMK AO2 P0000 T10441067
KEWR 160151Z 26009KT 10SM FEW009 FEW035 SCT080 BKN250 M04/M07 A2993 RMK AO2 SNE32 SLP134 P0000 T10441072
KEWR 160251Z 24007KT 10SM FEW008 FEW080 SCT250 M06/M08 A2993 RMK AO2 SLP135 60000 T10561078 53002
KEWR 160351Z 22007KT 10SM BKN080 BKN110 M06/M08 A2993 RMK AO2 SLP133 T10561078
KEWR 160451Z 22007KT 10SM FEW080 M06/M08 A2992 RMK AO2 SLP131 T10611078 410281078
KEWR 160551Z COR 25007KT 10SM FEW080 M06/M08 A2992 RMK AO2 SLP131 931001 4/001 60000 T10611078 11044 21067 56003
KEWR 160651Z 26012KT 10SM FEW250 M06/M08 A2994 RMK AO2 SLP136 T10561078
KEWR 160751Z 26010KT 10SM FEW250 M05/M08 A2996 RMK AO2 SLP146 T10501078
KEWR 160851Z 24007KT 10SM FEW250 M06/M09 A2998 RMK AO2 SLP151 T10561089 53020
KEWR 160951Z 22005KT 10SM FEW250 M07/M09 A2999 RMK AO2 SLP154 T10721094
KEWR 161051Z 22005KT 10SM FEW250 M07/M10 A3001 RMK AO2 SLP160 T10721100
KEWR 161151Z 24010KT 10SM SCT250 M06/M09 A3003 RMK AO2 SLP168 4/001 70010 T10561089 11050 21083 53017